createdAt,value
2022-12-31T13:25:30.001Z,20.50
2022-12-31T13:28:04.399Z,20.30
2022-12-31T13:30:44.053Z,20.10
2022-12-31T13:33:18.650Z,19.90
2022-12-31T13:35:54.760Z,19.80
2022-12-31T13:38:28.787Z,19.70
2022-12-31T13:41:05.971Z,19.60
2022-12-31T13:43:45.788Z,19.50
2022-12-31T13:46:26.600Z,19.40
2022-12-31T13:49:05.757Z,19.30
2022-12-31T13:51:44.606Z,19.20
2022-12-31T13:54:23.563Z,19.10
2022-12-31T13:56:53.854Z,19.10
2022-12-31T13:59:34.085Z,19.00
2022-12-31T14:02:12.311Z,18.90
2022-12-31T14:04:48.841Z,18.80
2022-12-31T14:07:22.761Z,18.80
2022-12-31T14:09:56.040Z,18.80
2022-12-31T14:12:41.249Z,18.80
2022-12-31T14:15:28.052Z,18.90
2022-12-31T14:19:14.588Z,18.80
2022-12-31T14:21:47.848Z,18.60
2022-12-31T14:24:36.404Z,18.40
2022-12-31T14:27:10.568Z,18.20
2022-12-31T14:29:45.180Z,18.00
2022-12-31T14:32:36.328Z,18.00
2022-12-31T14:35:40.782Z,17.90
2022-12-31T14:38:28.234Z,17.70
2022-12-31T14:41:13.128Z,17.50
2022-12-31T14:43:55.327Z,17.40
2022-12-31T14:46:35.354Z,17.30
2022-12-31T14:49:17.556Z,17.20
2022-12-31T14:51:53.140Z,17.10
2022-12-31T14:54:33.721Z,17.10
2022-12-31T14:58:16.817Z,17.00
2022-12-31T15:00:47.892Z,16.90
2022-12-31T15:06:56.330Z,16.80
2022-12-31T15:09:58.737Z,16.70
2022-12-31T15:13:07.932Z,16.70
2022-12-31T15:15:50.638Z,17.00
2022-12-31T15:18:39.650Z,17.00
2022-12-31T15:21:24.461Z,16.80
2022-12-31T15:23:59.362Z,16.70
2022-12-31T15:26:37.962Z,16.50
2022-12-31T15:29:39.393Z,16.30
2022-12-31T15:33:08.519Z,16.20
2022-12-31T15:35:51.817Z,16.10
2022-12-31T15:38:49.495Z,16.00
2022-12-31T15:42:10.440Z,16.10
2022-12-31T15:45:03.927Z,16.10
2022-12-31T15:47:53.473Z,15.90
2022-12-31T15:58:06.560Z,15.50
2022-12-31T16:01:00.307Z,15.40
2022-12-31T16:07:11.713Z,15.60
2022-12-31T16:09:48.813Z,15.70
2022-12-31T16:12:34.366Z,15.50
2022-12-31T16:15:42.952Z,15.20
2022-12-31T16:18:22.367Z,15.10
2022-12-31T16:21:15.049Z,14.90
2022-12-31T16:24:10.114Z,14.80
2022-12-31T16:27:00.418Z,14.80
2022-12-31T16:29:41.367Z,14.70
2022-12-31T16:32:32.233Z,14.60
2022-12-31T16:35:23.855Z,14.60
2022-12-31T16:38:03.859Z,14.70
2022-12-31T16:40:32.965Z,15.10
2022-12-31T16:43:27.463Z,15.50
2022-12-31T16:46:07.684Z,16.00
2022-12-31T16:48:39.047Z,16.30
2022-12-31T16:51:08.475Z,16.40
2022-12-31T16:53:39.723Z,16.20
2022-12-31T16:56:10.521Z,16.00
2022-12-31T16:58:45.282Z,15.80
2022-12-31T17:01:18.612Z,15.60
2022-12-31T17:03:53.371Z,15.50
2022-12-31T17:06:22.993Z,15.40
2022-12-31T17:09:06.846Z,15.40
2022-12-31T17:11:39.476Z,15.30
2022-12-31T17:14:15.079Z,15.40
2022-12-31T17:17:02.545Z,15.20
2022-12-31T17:19:46.110Z,15.10
2022-12-31T17:22:30.709Z,15.10
2022-12-31T17:25:06.233Z,15.00
2022-12-31T17:27:35.975Z,15.10
2022-12-31T17:30:24.723Z,15.00
2022-12-31T17:33:16.565Z,15.10
2022-12-31T17:35:53.612Z,15.20
2022-12-31T17:38:33.922Z,15.30
2022-12-31T17:41:14.754Z,15.20
2022-12-31T17:43:44.372Z,15.10
2022-12-31T17:46:15.387Z,15.00
2022-12-31T17:48:46.556Z,14.80
2022-12-31T17:51:25.320Z,14.70
2022-12-31T17:53:55.563Z,14.80
2022-12-31T17:56:25.881Z,14.80
2022-12-31T17:58:55.666Z,14.70
2022-12-31T18:01:25.429Z,14.90
2022-12-31T18:03:54.273Z,14.90
2022-12-31T18:06:24.730Z,14.70
2022-12-31T18:08:55.538Z,14.60
2022-12-31T18:11:25.401Z,14.50
2022-12-31T18:13:56.923Z,14.30
2022-12-31T18:16:28.836Z,14.10
2022-12-31T18:19:45.845Z,14.10
2022-12-31T18:22:16.342Z,14.10
2022-12-31T18:24:46.038Z,14.10
2022-12-31T18:27:17.889Z,14.20
2022-12-31T18:30:16.122Z,14.20
2022-12-31T18:32:48.718Z,14.00
2022-12-31T18:35:57.755Z,14.00
2022-12-31T18:38:14.174Z,13.90
2022-12-31T18:40:46.872Z,14.00
2022-12-31T18:43:20.143Z,14.00
2022-12-31T18:45:50.219Z,14.00
2022-12-31T18:48:19.739Z,13.90
2022-12-31T18:50:49.421Z,14.10
2022-12-31T18:53:22.644Z,13.90
2022-12-31T18:55:52.471Z,13.80
2022-12-31T18:58:24.347Z,13.70
2022-12-31T19:00:55.059Z,13.60
2022-12-31T19:03:27.443Z,13.90
2022-12-31T19:05:56.327Z,13.90
2022-12-31T19:08:54.989Z,13.90
2022-12-31T19:11:24.889Z,14.00
2022-12-31T19:13:55.680Z,14.00
2022-12-31T19:16:31.374Z,14.00
2022-12-31T19:19:08.435Z,13.90
2022-12-31T19:21:40.633Z,13.80
2022-12-31T19:24:21.685Z,13.70
2022-12-31T19:27:00.916Z,13.80
2022-12-31T19:29:30.354Z,14.10
2022-12-31T19:32:35.038Z,14.40
2022-12-31T19:35:07.237Z,14.50
2022-12-31T19:37:42.209Z,14.40
2022-12-31T19:40:31.344Z,14.40
2022-12-31T19:43:00.080Z,14.50
2022-12-31T19:45:32.202Z,14.50
2022-12-31T19:48:01.027Z,14.50
2022-12-31T19:50:33.447Z,14.40
2022-12-31T19:53:02.275Z,14.30
2022-12-31T19:55:50.602Z,14.60
2022-12-31T19:58:22.053Z,14.80
2022-12-31T20:00:55.855Z,14.80
2022-12-31T20:07:45.889Z,14.50
2022-12-31T20:10:35.450Z,14.60
2022-12-31T20:13:05.692Z,15.10
2022-12-31T20:15:34.768Z,15.90
2022-12-31T20:18:03.164Z,16.00
